Time;durP1;ratioP1;P1;durP2;ratioP2;P2;SDS_P1;SDS_P2;PMS_P1;PMS_P2;Temp;Humidity;BMP_temperature;BMP_pressure;BME280_temperature;BME280_humidity;BME280_pressure;Samples;Min_cycle;Max_cycle;Signal;HPM_P1;HPM_P2
2022/08/29 00:01:29;;;;;;;;;;;;;;;24.28;100.00;98091.81;5120584;28;19959;-62
2022/08/29 00:03:56;;;;;;;;;;;;;;;24.15;100.00;98093.00;5120745;28;19958;-62
2022/08/29 00:06:23;;;;;;;;;;;;;;;23.98;100.00;98096.00;5123425;28;19962;-62
2022/08/29 00:08:49;;;;;;;;;;;;;;;23.74;100.00;98104.25;5124205;28;19924;-62
2022/08/29 00:11:15;;;;;;;;;;;;;;;23.76;100.00;98096.50;5122022;28;19963;-63
2022/08/29 00:13:42;;;;;;;;;;;;;;;23.58;100.00;98110.38;5120664;28;19975;-62
2022/08/29 00:16:08;;;;;;;;;;;;;;;23.58;100.00;98098.69;5121313;28;19984;-62
2022/08/29 00:18:36;;;;;;;;;;;;;;;23.54;100.00;98100.50;5124007;28;19948;-63
2022/08/29 00:21:03;;;;;;;;;;;;;;;23.76;100.00;98097.28;5123966;28;19924;-62
2022/08/29 00:23:29;;;;;;;;;;;;;;;23.95;100.00;98093.94;5120390;28;19936;-62
2022/08/29 00:25:56;;;;;;;;;;;;;;;24.12;100.00;98099.16;5127056;27;19924;-62
2022/08/29 00:28:22;;;;;;;;;;;;;;;24.17;100.00;98096.97;5123308;28;19928;-62
2022/08/29 00:30:49;;;;;;;;;;;;;;;23.94;100.00;98095.88;5123939;28;19926;-62
2022/08/29 00:33:16;;;;;;;;;;;;;;;23.92;100.00;98089.19;5121504;28;20004;-62
2022/08/29 00:35:44;;;;;;;;;;;;;;;23.88;100.00;98089.09;5120204;28;19947;-62
2022/08/29 00:38:12;;;;;;;;;;;;;;;24.00;100.00;98094.50;5121154;28;19950;-63
2022/08/29 00:40:39;;;;;;;;;;;;;;;23.89;100.00;98085.19;5123549;28;19954;-62
2022/08/29 00:43:06;;;;;;;;;;;;;;;23.85;100.00;98094.44;5123141;28;19979;-62
2022/08/29 00:45:32;;;;;;;;;;;;;;;23.96;100.00;98085.41;5120073;28;19991;-62
2022/08/29 00:48:00;;;;;;;;;;;;;;;23.64;100.00;98092.63;5119946;28;19924;-62
2022/08/29 00:50:30;;;;;;;;;;;;;;;23.76;100.00;98097.28;5123367;28;19978;-62
2022/08/29 00:52:59;;;;;;;;;;;;;;;23.56;100.00;98087.31;5123471;28;19931;-63
2022/08/29 00:55:27;;;;;;;;;;;;;;;23.52;100.00;98100.84;5114753;28;19959;-62
2022/08/29 00:57:56;;;;;;;;;;;;;;;23.47;100.00;98100.28;5119829;28;19931;-62
2022/08/29 01:00:23;;;;;;;;;;;;;;;23.81;100.00;98098.97;5122591;28;19932;-63
2022/08/29 01:02:50;;;;;;;;;;;;;;;23.76;100.00;98091.03;5123266;28;20031;-61
2022/08/29 01:05:18;;;;;;;;;;;;;;;23.60;100.00;98099.13;5121103;28;20006;-62
2022/08/29 01:07:45;;;;;;;;;;;;;;;23.60;100.00;98094.50;5119806;28;19928;-62
2022/08/29 01:12:14;;;;;;;;;;;;;;;23.81;100.00;98099.78;5120762;28;19932;-62
2022/08/29 01:12:59;;;;;;;;;;;;;;;23.88;100.00;98093.75;5123183;28;19968;-62
2022/08/29 01:15:26;;;;;;;;;;;;;;;23.95;100.00;98099.41;5101547;28;19924;-63
2022/08/29 01:17:54;;;;;;;;;;;;;;;24.02;100.00;98094.94;5119568;28;20012;-61
2022/08/29 01:20:25;;;;;;;;;;;;;;;24.09;100.00;98099.81;5122179;28;20506;-62
2022/08/29 01:22:59;;;;;;;;;;;;;;;24.10;100.00;98095.94;5123111;28;19934;-62
2022/08/29 01:25:30;;;;;;;;;;;;;;;24.08;100.00;98098.22;5126276;27;19950;-62
2022/08/29 01:27:59;;;;;;;;;;;;;;;24.05;100.00;98104.34;5119477;28;19935;-62
2022/08/29 01:30:26;;;;;;;;;;;;;;;23.98;100.00;98094.06;5122474;28;19934;-62
2022/08/29 01:32:52;;;;;;;;;;;;;;;23.98;100.00;98093.25;5122716;28;19928;-62
2022/08/29 01:35:18;;;;;;;;;;;;;;;24.05;100.00;98093.44;5120125;28;20508;-62
2022/08/29 01:37:45;;;;;;;;;;;;;;;23.92;100.00;98098.16;5118747;28;19979;-62
2022/08/29 01:40:13;;;;;;;;;;;;;;;23.81;100.00;98099.78;5120199;28;19931;-61
2022/08/29 01:42:40;;;;;;;;;;;;;;;23.81;100.00;98102.50;5122512;28;19920;-61
2022/08/29 01:45:07;;;;;;;;;;;;;;;23.91;100.00;98107.50;5121356;28;19924;-61
2022/08/29 01:47:34;;;;;;;;;;;;;;;23.96;100.00;98101.78;5119076;28;19920;-61
2022/08/29 01:50:01;;;;;;;;;;;;;;;23.88;100.00;98105.44;5119194;28;19931;-61
2022/08/29 01:52:28;;;;;;;;;;;;;;;23.86;100.00;98094.06;5110649;28;19924;-62
2022/08/29 01:54:54;;;;;;;;;;;;;;;23.68;100.00;98100.94;5124473;27;19935;-61
2022/08/29 01:57:20;;;;;;;;;;;;;;;23.75;100.00;98106.59;5119769;28;19924;-61
2022/08/29 01:59:48;;;;;;;;;;;;;;;23.73;100.00;98091.72;5119095;28;19955;-62
2022/08/29 02:02:17;;;;;;;;;;;;;;;23.05;100.00;98094.25;5120597;28;19924;-61
2022/08/29 02:04:44;;;;;;;;;;;;;;;22.97;100.00;98097.84;5122518;28;19924;-62
2022/08/29 02:07:10;;;;;;;;;;;;;;;22.87;100.00;98093.66;5121048;28;19928;-62
2022/08/29 02:09:37;;;;;;;;;;;;;;;23.13;100.00;98093.34;5118937;28;19927;-63
2022/08/29 02:12:05;;;;;;;;;;;;;;;22.99;100.00;98092.88;5119031;28;19928;-62
2022/08/29 02:14:33;;;;;;;;;;;;;;;22.97;100.00;98095.13;5122199;28;19924;-62
2022/08/29 02:17:00;;;;;;;;;;;;;;;23.22;100.00;98082.31;5122122;28;19924;-62
2022/08/29 02:19:27;;;;;;;;;;;;;;;23.20;100.00;98090.84;5118635;28;20433;-62
2022/08/29 02:21:53;;;;;;;;;;;;;;;23.18;100.00;98084.94;5118758;28;19963;-62
2022/08/29 02:24:20;;;;;;;;;;;;;;;22.96;100.00;98082.66;5127785;28;19955;-62
2022/08/29 02:26:46;;;;;;;;;;;;;;;23.11;100.00;98084.72;5121900;28;19927;-62
2022/08/29 02:29:12;;;;;;;;;;;;;;;22.83;100.00;98081.06;5120462;28;19928;-63
2022/08/29 02:31:39;;;;;;;;;;;;;;;22.93;100.00;98086.06;5118376;28;19924;-62
2022/08/29 02:34:08;;;;;;;;;;;;;;;22.80;100.00;98082.53;5118757;28;19924;-62
2022/08/29 02:36:34;;;;;;;;;;;;;;;23.07;100.00;98081.06;5121700;28;19928;-62
2022/08/29 02:39:01;;;;;;;;;;;;;;;23.31;100.00;98081.06;5121887;28;19924;-62
2022/08/29 02:41:27;;;;;;;;;;;;;;;23.51;100.00;98085.63;5118277;28;19955;-61
2022/08/29 02:43:53;;;;;;;;;;;;;;;23.52;100.00;98079.03;5118197;28;20504;-62
2022/08/29 02:46:20;;;;;;;;;;;;;;;23.50;100.00;98084.03;5120627;28;19942;-61
2022/08/29 02:48:47;;;;;;;;;;;;;;;23.38;100.00;98091.41;5121876;28;19919;-61
2022/08/29 02:51:19;;;;;;;;;;;;;;;23.48;100.00;98069.16;5120179;28;19955;-61
2022/08/29 02:53:46;;;;;;;;;;;;;;;23.45;100.00;98076.09;5120471;28;19931;-62
2022/08/29 02:56:12;;;;;;;;;;;;;;;23.28;100.00;98079.03;5124433;28;19928;-62
2022/08/29 02:58:39;;;;;;;;;;;;;;;23.37;100.00;98084.34;5125601;28;19920;-62
2022/08/29 03:01:05;;;;;;;;;;;;;;;23.47;100.00;98082.00;5125119;28;19970;-62
2022/08/29 03:03:32;;;;;;;;;;;;;;;23.62;100.00;98084.03;5121962;28;19920;-62
2022/08/29 03:05:58;;;;;;;;;;;;;;;23.53;100.00;98088.81;5121868;28;19975;-62
2022/08/29 03:08:26;;;;;;;;;;;;;;;23.64;100.00;98086.41;5124867;28;19959;-61
2022/08/29 03:10:52;;;;;;;;;;;;;;;23.53;100.00;98080.63;5125256;28;19928;-62
2022/08/29 03:13:19;;;;;;;;;;;;;;;23.39;100.00;98090.28;5122820;28;19919;-63
2022/08/29 03:15:45;;;;;;;;;;;;;;;23.40;100.00;98091.88;5121825;28;19924;-63
2022/08/29 03:18:13;;;;;;;;;;;;;;;23.33;100.00;98100.63;5122819;28;19977;-62
2022/08/29 03:20:40;;;;;;;;;;;;;;;22.96;100.00;98091.63;5125092;28;19924;-62
2022/08/29 03:23:07;;;;;;;;;;;;;;;22.83;100.00;98102.84;5124338;28;19919;-62
2022/08/29 03:25:35;;;;;;;;;;;;;;;22.70;100.00;98093.06;5128104;27;19920;-62
2022/08/29 03:28:01;;;;;;;;;;;;;;;22.68;100.00;98095.31;5121379;28;19954;-62
2022/08/29 03:30:28;;;;;;;;;;;;;;;22.89;100.00;98101.50;5112933;28;20613;-62
2022/08/29 03:32:55;;;;;;;;;;;;;;;23.04;100.00;98098.91;5112968;28;19974;-62
2022/08/29 03:35:21;;;;;;;;;;;;;;;23.09;100.00;98111.50;5112663;28;19924;-62
2022/08/29 03:37:48;;;;;;;;;;;;;;;23.15;100.00;98110.13;5112484;28;19931;-61
2022/08/29 03:40:15;;;;;;;;;;;;;;;23.04;100.00;98106.28;5112438;28;19920;-62
2022/08/29 03:42:42;;;;;;;;;;;;;;;23.18;100.00;98108.69;5112881;28;19955;-63
2022/08/29 03:45:10;;;;;;;;;;;;;;;23.16;100.00;98102.75;5112441;28;19924;-62
2022/08/29 03:47:36;;;;;;;;;;;;;;;23.07;100.00;98106.41;5112443;28;19988;-62
2022/08/29 03:50:03;;;;;;;;;;;;;;;23.09;100.00;98106.03;5112531;28;19965;-61
2022/08/29 03:52:30;;;;;;;;;;;;;;;23.24;100.00;98110.81;5112474;28;19952;-62
2022/08/29 03:54:56;;;;;;;;;;;;;;;23.34;100.00;98113.09;5126815;27;19927;-62
2022/08/29 03:57:23;;;;;;;;;;;;;;;23.37;100.00;98111.59;5121404;28;19963;-62
2022/08/29 03:59:50;;;;;;;;;;;;;;;23.38;100.00;98119.47;5120829;28;19952;-62
2022/08/29 04:02:17;;;;;;;;;;;;;;;23.43;100.00;98108.34;5122801;28;19948;-63
2022/08/29 04:07:44;;;;;;;;;;;;;;;23.13;100.00;98124.09;5064297;28;19925;-62
2022/08/29 04:10:12;;;;;;;;;;;;;;;22.84;100.00;98128.94;5108550;28;19931;-62
2022/08/29 04:12:39;;;;;;;;;;;;;;;22.61;100.00;98131.25;5124059;28;19947;-61
2022/08/29 04:15:07;;;;;;;;;;;;;;;22.43;100.00;98121.66;5123427;28;19951;-62
2022/08/29 04:17:34;;;;;;;;;;;;;;;21.91;100.00;98124.03;5120416;28;19959;-62
2022/08/29 04:20:01;;;;;;;;;;;;;;;22.00;100.00;98133.69;5120511;28;19931;-62
2022/08/29 04:22:27;;;;;;;;;;;;;;;22.17;100.00;98138.19;5123924;28;20141;-62
2022/08/29 04:24:53;;;;;;;;;;;;;;;22.24;100.00;98141.19;5130661;27;19920;-61
2022/08/29 04:27:20;;;;;;;;;;;;;;;22.13;100.00;98134.53;5121062;28;19966;-62
2022/08/29 04:29:47;;;;;;;;;;;;;;;22.37;100.00;98129.22;5120698;28;20030;-62
2022/08/29 04:32:15;;;;;;;;;;;;;;;22.27;100.00;98140.53;5121946;28;19930;-63
2022/08/29 04:34:41;;;;;;;;;;;;;;;22.41;100.00;98132.84;5123915;28;19919;-62
2022/08/29 04:37:07;;;;;;;;;;;;;;;22.63;100.00;98134.41;5122716;28;19974;-62
2022/08/29 04:39:34;;;;;;;;;;;;;;;22.90;100.00;98130.31;5120274;28;19984;-62
2022/08/29 04:42:00;;;;;;;;;;;;;;;22.97;100.00;98136.00;5120120;28;19991;-62
2022/08/29 04:44:27;;;;;;;;;;;;;;;23.00;100.00;98140.75;5123522;28;19962;-62
2022/08/29 04:46:53;;;;;;;;;;;;;;;22.99;100.00;98139.19;5123570;28;19971;-63
2022/08/29 04:49:21;;;;;;;;;;;;;;;22.89;100.00;98142.34;5121039;28;20039;-62
2022/08/29 04:51:47;;;;;;;;;;;;;;;22.78;100.00;98147.41;5119905;28;19924;-63
2022/08/29 04:54:13;;;;;;;;;;;;;;;22.58;100.00;98140.06;5128227;27;19928;-62
2022/08/29 04:56:40;;;;;;;;;;;;;;;22.71;100.00;98151.84;5123501;28;19920;-62
2022/08/29 04:59:06;;;;;;;;;;;;;;;22.83;100.00;98143.69;5122746;28;19945;-62
2022/08/29 05:01:32;;;;;;;;;;;;;;;22.82;100.00;98144.81;5119749;28;19966;-62
2022/08/29 05:03:59;;;;;;;;;;;;;;;22.41;100.00;98146.47;5119749;28;19924;-63
2022/08/29 05:06:27;;;;;;;;;;;;;;;22.52;100.00;98139.50;5122977;28;19935;-65
2022/08/29 05:08:53;;;;;;;;;;;;;;;22.65;100.00;98150.41;5123611;28;19970;-62
2022/08/29 05:11:20;;;;;;;;;;;;;;;22.45;100.00;98158.28;5120628;28;19923;-62
2022/08/29 05:13:47;;;;;;;;;;;;;;;22.08;100.00;98158.44;5119707;28;19924;-62
2022/08/29 05:16:15;;;;;;;;;;;;;;;21.90;100.00;98152.34;5120960;28;19962;-63
2022/08/29 05:18:43;;;;;;;;;;;;;;;21.92;100.00;98160.94;5122908;28;19952;-63
2022/08/29 05:21:09;;;;;;;;;;;;;;;22.16;100.00;98158.34;5121092;28;19945;-63
2022/08/29 05:23:37;;;;;;;;;;;;;;;22.08;100.00;98170.13;5119442;28;19959;-62
2022/08/29 05:26:04;;;;;;;;;;;;;;;22.08;100.00;98158.44;5119611;28;19924;-63
2022/08/29 05:28:31;;;;;;;;;;;;;;;22.34;100.00;98159.84;5122868;28;19963;-63
2022/08/29 05:30:58;;;;;;;;;;;;;;;22.51;100.00;98165.09;5122818;28;19999;-63
2022/08/29 05:33:26;;;;;;;;;;;;;;;22.70;100.00;98156.47;5119529;28;19938;-61
2022/08/29 05:35:52;;;;;;;;;;;;;;;22.74;100.00;98160.13;5119142;28;19920;-63
2022/08/29 05:38:19;;;;;;;;;;;;;;;22.78;100.00;98165.66;5121255;28;19924;-62
2022/08/29 05:40:46;;;;;;;;;;;;;;;22.77;100.00;98159.44;5122771;28;19935;-62
2022/08/29 05:43:13;;;;;;;;;;;;;;;22.36;100.00;98171.19;5121139;28;19959;-63
2022/08/29 05:45:40;;;;;;;;;;;;;;;22.51;100.00;98172.47;5119059;28;19963;-63
2022/08/29 05:48:08;;;;;;;;;;;;;;;22.31;100.00;98171.34;5119472;28;19920;-65
2022/08/29 05:50:37;;;;;;;;;;;;;;;22.06;100.00;98169.66;5122519;28;19962;-63
2022/08/29 05:53:03;;;;;;;;;;;;;;;22.23;100.00;98169.50;5122315;28;19991;-64
2022/08/29 05:55:29;;;;;;;;;;;;;;;22.53;100.00;98171.00;5125658;28;19958;-63
2022/08/29 05:57:57;;;;;;;;;;;;;;;22.82;100.00;98180.22;5118961;28;19928;-62
2022/08/29 06:00:23;;;;;;;;;;;;;;;22.92;100.00;98182.53;5121790;28;19959;-63
2022/08/29 06:02:50;;;;;;;;;;;;;;;23.06;100.00;98183.00;5122212;28;19941;-64
2022/08/29 06:05:16;;;;;;;;;;;;;;;23.10;100.00;98183.91;5120082;28;19987;-63
2022/08/29 06:07:42;;;;;;;;;;;;;;;23.15;100.00;98174.75;5118464;28;19959;-63
2022/08/29 06:10:09;;;;;;;;;;;;;;;23.23;100.00;98180.09;5119443;28;19924;-63
2022/08/29 06:12:35;;;;;;;;;;;;;;;23.29;100.00;98186.91;5122259;28;19923;-62
2022/08/29 06:15:03;;;;;;;;;;;;;;;23.29;100.00;98183.38;5122327;28;19935;-63
2022/08/29 06:17:30;;;;;;;;;;;;;;;23.35;100.00;98196.44;5110215;28;19920;-65
2022/08/29 06:19:56;;;;;;;;;;;;;;;23.26;100.00;98193.03;5110133;28;19999;-62
2022/08/29 06:22:22;;;;;;;;;;;;;;;23.35;100.00;98191.00;5109942;28;19931;-61
2022/08/29 06:24:51;;;;;;;;;;;;;;;23.17;100.00;98197.00;5123508;28;19923;-62
2022/08/29 06:27:18;;;;;;;;;;;;;;;23.38;100.00;98198.50;5119738;28;19987;-62
2022/08/29 06:29:44;;;;;;;;;;;;;;;23.57;100.00;98203.44;5118576;28;20030;-62
2022/08/29 06:32:12;;;;;;;;;;;;;;;23.84;100.00;98201.94;5121800;28;19959;-65
2022/08/29 06:34:38;;;;;;;;;;;;;;;24.03;100.00;98193.97;5126201;28;19977;-62
2022/08/29 06:37:05;;;;;;;;;;;;;;;24.07;100.00;98192.13;5125562;28;19992;-62
2022/08/29 06:39:31;;;;;;;;;;;;;;;23.78;100.00;98197.84;5122547;28;19930;-61
2022/08/29 06:41:57;;;;;;;;;;;;;;;24.09;100.00;98193.38;5122280;28;19935;-63
2022/08/29 06:44:25;;;;;;;;;;;;;;;24.28;100.00;98200.19;5125060;28;19959;-62
2022/08/29 06:46:52;;;;;;;;;;;;;;;24.17;100.00;98199.84;5125525;28;19924;-62
2022/08/29 06:49:20;;;;;;;;;;;;;;;24.21;100.00;98203.50;5123560;28;19955;-61
2022/08/29 06:51:51;;;;;;;;;;;;;;;24.50;100.00;98202.41;5122434;28;19924;-61
2022/08/29 06:54:18;;;;;;;;;;;;;;;24.60;100.00;98202.69;5131194;27;19924;-63
2022/08/29 06:56:44;;;;;;;;;;;;;;;24.76;100.00;98201.97;5126166;28;19924;-63
2022/08/29 06:59:11;;;;;;;;;;;;;;;24.84;100.00;98203.78;5124519;28;19928;-62
2022/08/29 07:01:39;;;;;;;;;;;;;;;24.88;100.00;98210.13;5122009;28;19947;-61
2022/08/29 07:04:06;;;;;;;;;;;;;;;24.61;100.00;98214.41;5122112;28;19967;-62
2022/08/29 07:06:34;;;;;;;;;;;;;;;24.65;100.00;98209.84;5125307;28;20318;-62
2022/08/29 07:09:00;;;;;;;;;;;;;;;24.85;100.00;98211.59;5125381;28;19951;-62
2022/08/29 07:11:28;;;;;;;;;;;;;;;24.78;100.00;98214.13;5121800;28;19931;-63
2022/08/29 07:13:55;;;;;;;;;;;;;;;24.24;100.00;98212.94;5121686;28;19934;-62
2022/08/29 07:16:22;;;;;;;;;;;;;;;24.54;100.00;98211.50;5123945;28;19924;-62
2022/08/29 07:18:48;;;;;;;;;;;;;;;24.43;100.00;98213.91;5106588;28;19982;-63
2022/08/29 07:21:16;;;;;;;;;;;;;;;24.69;100.00;98208.81;5123115;28;19923;-62
2022/08/29 07:23:43;;;;;;;;;;;;;;;24.77;100.00;98209.00;5122609;27;19960;-62
2022/08/29 07:26:10;;;;;;;;;;;;;;;24.68;100.00;98207.22;5127249;27;20019;-62
2022/08/29 07:28:37;;;;;;;;;;;;;;;24.59;100.00;98212.03;5124617;28;20042;-62
2022/08/29 07:31:04;;;;;;;;;;;;;;;24.24;100.00;98213.72;5124606;28;19949;-63
2022/08/29 07:33:31;;;;;;;;;;;;;;;24.36;100.00;98207.44;5121279;28;19943;-62
2022/08/29 07:35:57;;;;;;;;;;;;;;;24.67;100.00;98213.81;5120940;28;20051;-62
2022/08/29 07:38:24;;;;;;;;;;;;;;;24.90;100.00;98216.84;5123386;28;19955;-62
2022/08/29 07:40:58;;;;;;;;;;;;;;;24.87;100.00;98216.72;5124572;28;19969;-62
2022/08/29 07:43:26;;;;;;;;;;;;;;;23.87;100.00;98217.63;5119473;28;20317;-62
2022/08/29 07:45:53;;;;;;;;;;;;;;;24.14;100.00;98212.25;5121030;28;19955;-61
2022/08/29 07:48:19;;;;;;;;;;;;;;;24.12;100.00;98225.47;5123233;28;19947;-62
2022/08/29 07:50:46;;;;;;;;;;;;;;;24.36;100.00;98213.69;5124552;28;20003;-61
2022/08/29 07:53:12;;;;;;;;;;;;;;;24.47;100.00;98208.56;5123184;28;20010;-62
2022/08/29 07:55:39;;;;;;;;;;;;;;;24.10;100.00;98213.28;5127960;27;19924;-62
2022/08/29 07:58:06;;;;;;;;;;;;;;;24.22;100.00;98217.94;5121188;28;20396;-61
2022/08/29 08:00:33;;;;;;;;;;;;;;;24.28;100.00;98222.81;5124120;28;19923;-62
2022/08/29 08:02:59;;;;;;;;;;;;;;;24.04;100.00;98217.38;5124431;28;19935;-63
2022/08/29 08:05:26;;;;;;;;;;;;;;;23.94;100.00;98217.84;5121356;28;20692;-62
2022/08/29 08:07:52;;;;;;;;;;;;;;;23.81;100.00;98229.88;5121095;28;19948;-62
2022/08/29 08:10:19;;;;;;;;;;;;;;;24.01;100.00;98229.00;5122899;28;19995;-61
2022/08/29 08:12:46;;;;;;;;;;;;;;;23.39;100.00;98221.09;5124281;28;19926;-62
2022/08/29 08:15:14;;;;;;;;;;;;;;;22.95;100.00;98219.97;5122948;28;19923;-63
2022/08/29 08:17:40;;;;;;;;;;;;;;;22.87;100.00;98229.03;5120856;28;19950;-61
2022/08/29 08:20:07;;;;;;;;;;;;;;;22.60;100.00;98228.44;5121008;28;19988;-62
2022/08/29 08:22:34;;;;;;;;;;;;;;;22.68;100.00;98231.47;5124050;28;19935;-63
2022/08/29 08:25:00;;;;;;;;;;;;;;;23.11;100.00;98235.34;5130920;27;19919;-62
2022/08/29 08:27:27;;;;;;;;;;;;;;;23.10;100.00;98238.41;5102620;28;19935;-62
2022/08/29 08:29:53;;;;;;;;;;;;;;;23.19;100.00;98239.09;5120529;28;19924;-62
2022/08/29 08:32:21;;;;;;;;;;;;;;;23.28;100.00;98242.53;5122538;28;19920;-62
2022/08/29 08:34:47;;;;;;;;;;;;;;;22.93;100.00;98244.03;5123657;28;19955;-61
2022/08/29 08:37:13;;;;;;;;;;;;;;;22.69;100.00;98246.63;5121892;28;19963;-62
2022/08/29 08:39:40;;;;;;;;;;;;;;;22.52;100.00;98248.38;5120135;28;19920;-62
2022/08/29 08:42:12;;;;;;;;;;;;;;;22.94;100.00;98257.31;5120451;28;19950;-61
2022/08/29 08:44:49;;;;;;;;;;;;;;;23.28;100.00;98256.16;5123606;28;19946;-62
2022/08/29 08:47:20;;;;;;;;;;;;;;;23.22;100.00;98246.59;5121540;28;20523;-62
2022/08/29 08:49:52;;;;;;;;;;;;;;;23.11;100.00;98257.16;5119786;28;19976;-62
2022/08/29 08:52:20;;;;;;;;;;;;;;;23.13;100.00;98249.44;5121715;28;19966;-61
2022/08/29 08:54:50;;;;;;;;;;;;;;;23.56;100.00;98256.34;5130118;27;19920;-61
2022/08/29 08:57:17;;;;;;;;;;;;;;;23.62;100.00;98250.34;5121025;28;19920;-62
2022/08/29 08:59:44;;;;;;;;;;;;;;;23.94;100.00;98254.09;5119923;28;19931;-62
2022/08/29 09:02:14;;;;;;;;;;;;;;;23.94;100.00;98253.31;5120534;28;19932;-62
2022/08/29 09:04:46;;;;;;;;;;;;;;;24.13;100.00;98248.09;5123275;28;19983;-62
2022/08/29 09:07:21;;;;;;;;;;;;;;;24.16;100.00;98253.66;5121658;28;19979;-62
2022/08/29 09:09:54;;;;;;;;;;;;;;;23.97;100.00;98252.63;5119593;28;19996;-61
2022/08/29 09:12:27;;;;;;;;;;;;;;;23.52;100.00;98250.00;5121989;28;19960;-62
2022/08/29 09:14:59;;;;;;;;;;;;;;;23.55;100.00;98250.09;5123116;28;19928;-61
2022/08/29 09:17:29;;;;;;;;;;;;;;;23.62;100.00;98247.63;5119687;28;20004;-61
2022/08/29 09:19:56;;;;;;;;;;;;;;;23.26;100.00;98252.19;5119423;28;19947;-61
2022/08/29 09:22:26;;;;;;;;;;;;;;;23.20;100.00;98248.09;5121712;28;19963;-61
2022/08/29 09:24:54;;;;;;;;;;;;;;;23.71;100.00;98252.16;5129860;27;19924;-61
2022/08/29 09:27:23;;;;;;;;;;;;;;;23.58;100.00;98254.88;5120062;28;19930;-61
2022/08/29 09:29:53;;;;;;;;;;;;;;;23.23;100.00;98244.69;5119548;28;19924;-61
2022/08/29 09:32:20;;;;;;;;;;;;;;;23.01;100.00;98259.50;5121610;28;19963;-61
2022/08/29 09:34:47;;;;;;;;;;;;;;;22.76;100.00;98249.63;5122664;28;19995;-61
2022/08/29 09:37:32;;;;;;;;;;;;;;;23.16;100.00;98237.06;5120962;28;19953;-63
2022/08/29 09:40:03;;;;;;;;;;;;;;;23.71;100.00;98246.69;5119262;28;19931;-62
2022/08/29 09:42:31;;;;;;;;;;;;;;;24.32;100.00;98248.31;5110785;28;19924;-62
2022/08/29 09:45:02;;;;;;;;;;;;;;;24.26;100.00;98246.16;5110989;28;19932;-62
2022/08/29 09:47:29;;;;;;;;;;;;;;;24.22;100.00;98240.56;5110944;28;20436;-62
2022/08/29 09:50:08;;;;;;;;;;;;;;;24.65;100.00;98237.97;5110862;28;19947;-61
2022/08/29 09:52:34;;;;;;;;;;;;;;;24.93;100.00;98242.66;5111076;28;19964;-61
2022/08/29 09:58:35;;;;;;;;;;;;;;;23.83;100.00;98233.09;5124810;27;19975;-63
2022/08/29 10:01:03;;;;;;;;;;;;;;;23.93;100.00;98238.06;5115805;28;19924;-63
2022/08/29 10:03:32;;;;;;;;;;;;;;;23.75;100.00;98237.50;5107871;28;19925;-62
2022/08/29 10:06:06;;;;;;;;;;;;;;;23.84;100.00;98234.66;5107849;28;19959;-62
2022/08/29 10:08:34;;;;;;;;;;;;;;;24.00;100.00;98233.63;5111545;28;19987;-63
2022/08/29 10:11:01;;;;;;;;;;;;;;;24.08;100.00;98240.09;5119607;28;19920;-62
2022/08/29 10:13:33;;;;;;;;;;;;;;;24.86;100.00;98228.78;5115655;28;19924;-62
2022/08/29 10:16:02;;;;;;;;;;;;;;;25.44;100.00;98235.44;5115763;28;20058;-63
2022/08/29 10:18:37;;;;;;;;;;;;;;;25.05;100.00;98231.66;5107132;28;19967;-62
2022/08/29 10:21:15;;;;;;;;;;;;;;;24.76;100.00;98237.47;5107219;28;19967;-62
2022/08/29 10:23:49;;;;;;;;;;;;;;;24.51;100.00;98229.34;5108474;28;19921;-62
2022/08/29 10:26:22;;;;;;;;;;;;;;;24.55;100.00;98221.25;5121132;27;19992;-62
2022/08/29 10:28:51;;;;;;;;;;;;;;;24.58;100.00;98221.38;5119203;28;19947;-62
2022/08/29 10:31:24;;;;;;;;;;;;;;;24.83;100.00;98222.09;5116813;28;19924;-62
2022/08/29 10:33:57;;;;;;;;;;;;;;;24.80;100.00;98227.41;5115675;28;19925;-62
2022/08/29 10:36:29;;;;;;;;;;;;;;;24.94;100.00;98219.66;5117899;28;19955;-62
2022/08/29 10:38:59;;;;;;;;;;;;;;;25.05;100.00;98228.94;5119211;28;19935;-63
2022/08/29 10:41:29;;;;;;;;;;;;;;;25.63;100.00;98222.66;5115908;28;20023;-63
2022/08/29 10:44:02;;;;;;;;;;;;;;;25.70;100.00;98216.56;5115762;28;20011;-63
2022/08/29 10:46:38;;;;;;;;;;;;;;;25.36;100.00;98217.25;5119150;28;19996;-63
2022/08/29 10:49:09;;;;;;;;;;;;;;;25.22;100.00;98223.16;5118811;28;19955;-63
2022/08/29 10:51:41;;;;;;;;;;;;;;;24.99;100.00;98224.88;5115303;28;19924;-63
2022/08/29 10:54:13;;;;;;;;;;;;;;;25.83;100.00;98214.53;5122930;28;19963;-64
2022/08/29 10:56:42;;;;;;;;;;;;;;;25.90;100.00;98220.16;5118712;28;20430;-63
2022/08/29 10:59:13;;;;;;;;;;;;;;;25.59;100.00;98216.28;5117855;28;19924;-62
2022/08/29 11:01:43;;;;;;;;;;;;;;;25.34;100.00;98219.53;5114165;28;19947;-63
2022/08/29 11:04:16;;;;;;;;;;;;;;;25.36;100.00;98218.03;5115951;28;19932;-63
2022/08/29 11:06:46;;;;;;;;;;;;;;;25.62;100.00;98221.09;5118604;28;19998;-63
2022/08/29 11:09:15;;;;;;;;;;;;;;;25.95;100.00;98207.00;5107510;28;19924;-63
2022/08/29 11:11:45;;;;;;;;;;;;;;;26.33;100.00;98206.31;5101472;28;19960;-63
2022/08/29 11:14:17;;;;;;;;;;;;;;;26.37;97.16;98201.69;5102183;28;19968;-63
2022/08/29 11:16:46;;;;;;;;;;;;;;;25.93;93.61;98201.09;5104637;28;19966;-63
2022/08/29 11:19:19;;;;;;;;;;;;;;;25.92;97.76;98206.91;5103055;28;19962;-62
2022/08/29 11:21:49;;;;;;;;;;;;;;;25.92;96.32;98201.44;5101102;28;19952;-63
2022/08/29 11:24:16;;;;;;;;;;;;;;;26.08;99.07;98194.00;5109633;28;19959;-62
2022/08/29 11:26:47;;;;;;;;;;;;;;;26.78;94.28;98200.97;5104388;28;19996;-63
2022/08/29 11:29:17;;;;;;;;;;;;;;;26.43;84.75;98194.00;5102690;28;19959;-63
2022/08/29 11:31:49;;;;;;;;;;;;;;;26.34;91.30;98198.91;5100699;28;19947;-62
2022/08/29 11:34:34;;;;;;;;;;;;;;;26.67;91.22;98193.72;5102372;28;19962;-62
2022/08/29 11:37:17;;;;;;;;;;;;;;;26.85;92.37;98194.06;5104004;28;19924;-62
2022/08/29 11:39:57;;;;;;;;;;;;;;;26.96;90.08;98189.56;5092212;28;19925;-62
2022/08/29 11:42:27;;;;;;;;;;;;;;;27.00;87.07;98185.75;5092105;28;19955;-62
2022/08/29 11:44:55;;;;;;;;;;;;;;;26.51;85.55;98192.97;5092347;28;19921;-62
2022/08/29 11:47:38;;;;;;;;;;;;;;;26.50;88.64;98185.91;5091853;28;19955;-63
2022/08/29 11:50:22;;;;;;;;;;;;;;;26.49;86.97;98181.59;5092142;28;19924;-63
2022/08/29 11:52:52;;;;;;;;;;;;;;;26.47;89.79;98178.41;5092159;28;20123;-62
2022/08/29 11:55:23;;;;;;;;;;;;;;;26.44;88.83;98177.19;5107467;28;19956;-62
2022/08/29 11:57:52;;;;;;;;;;;;;;;26.52;88.80;98178.91;5100305;28;19925;-62
2022/08/29 12:00:37;;;;;;;;;;;;;;;26.70;89.40;98173.81;5102430;28;19929;-63
2022/08/29 12:03:05;;;;;;;;;;;;;;;26.38;87.59;98164.94;5103875;28;19924;-62
2022/08/29 12:05:58;;;;;;;;;;;;;;;26.01;90.65;98177.41;5091603;28;19943;-63
2022/08/29 12:08:31;;;;;;;;;;;;;;;26.03;90.38;98175.09;5091372;28;19934;-62
2022/08/29 12:10:58;;;;;;;;;;;;;;;26.28;91.09;98174.53;5091529;28;19992;-62
2022/08/29 12:13:39;;;;;;;;;;;;;;;26.33;90.84;98169.91;5091349;28;19967;-62
2022/08/29 12:16:08;;;;;;;;;;;;;;;26.56;90.30;98171.56;5091217;28;19959;-63
2022/08/29 12:18:40;;;;;;;;;;;;;;;26.57;87.44;98170.44;5091745;28;19950;-64
2022/08/29 12:21:25;;;;;;;;;;;;;;;26.49;84.71;98165.94;5090458;28;20043;-63
2022/08/29 12:23:51;;;;;;;;;;;;;;;26.60;87.31;98164.22;5095264;28;19974;-63
2022/08/29 12:26:32;;;;;;;;;;;;;;;26.59;86.78;98162.63;5104557;28;19988;-63
2022/08/29 12:29:00;;;;;;;;;;;;;;;26.73;80.45;98160.19;5103365;28;19949;-62
2022/08/29 12:31:33;;;;;;;;;;;;;;;26.93;77.60;98160.16;5099973;28;19939;-63
2022/08/29 12:34:09;;;;;;;;;;;;;;;26.90;77.91;98161.69;5099697;28;19956;-62
2022/08/29 12:36:46;;;;;;;;;;;;;;;26.74;84.20;98155.47;5091082;28;20293;-64
2022/08/29 12:39:22;;;;;;;;;;;;;;;26.59;81.96;98148.94;5090993;28;19925;-62
2022/08/29 12:42:02;;;;;;;;;;;;;;;26.85;84.29;98147.47;5091116;28;19924;-63
2022/08/29 12:44:32;;;;;;;;;;;;;;;26.92;79.02;98142.16;5091023;28;20071;-63
2022/08/29 12:47:01;;;;;;;;;;;;;;;26.78;82.57;98143.44;5090772;28;20581;-63
2022/08/29 12:49:33;;;;;;;;;;;;;;;26.94;82.37;98140.63;5090979;28;19927;-63
2022/08/29 12:52:01;;;;;;;;;;;;;;;26.85;85.37;98133.78;5091114;28;19929;-63